createdAt,value
2023-01-11T00:00:45.744Z,100466.00
2023-01-11T00:03:12.653Z,100466.88
2023-01-11T00:05:44.281Z,100464.25
2023-01-11T00:08:11.928Z,100470.41
2023-01-11T00:10:39.903Z,100465.13
2023-01-11T00:13:07.232Z,100451.03
2023-01-11T00:15:36.546Z,100451.03
2023-01-11T00:18:03.666Z,100450.16
2023-01-11T00:20:30.417Z,100452.78
2023-01-11T00:22:57.281Z,100460.72
2023-01-11T00:25:24.249Z,100457.19
2023-01-11T00:27:51.072Z,100455.44
2023-01-11T00:30:18.656Z,100445.75
2023-01-11T00:32:46.009Z,100437.84
2023-01-11T00:35:13.035Z,100443.13
2023-01-11T00:37:40.476Z,100430.78
2023-01-11T00:40:08.341Z,100430.78
2023-01-11T00:42:53.455Z,100436.06
2023-01-11T00:45:38.473Z,100433.44
2023-01-11T00:48:07.008Z,100429.91
2023-01-11T00:50:37.639Z,100428.13
2023-01-11T00:53:05.506Z,100423.75
2023-01-11T00:55:32.761Z,100425.50
2023-01-11T00:58:00.400Z,100419.31
2023-01-11T01:00:28.493Z,100418.44
2023-01-11T01:02:55.346Z,100417.56
2023-01-11T01:05:22.258Z,100416.66
2023-01-11T01:07:49.315Z,100421.97
2023-01-11T01:10:18.294Z,100435.19
2023-01-11T01:13:04.728Z,100427.28
2023-01-11T01:15:32.570Z,100431.66
2023-01-11T01:17:59.468Z,100428.13
2023-01-11T01:20:26.841Z,100420.22
2023-01-11T01:22:53.640Z,100427.25
2023-01-11T01:25:20.550Z,100418.44
2023-01-11T01:27:47.357Z,100423.75
2023-01-11T01:30:14.467Z,100413.16
2023-01-11T01:32:41.260Z,100408.72
2023-01-11T01:35:08.844Z,100413.16
2023-01-11T01:37:35.621Z,100399.06
2023-01-11T01:40:02.609Z,100391.13
2023-01-11T01:42:29.377Z,100388.47
2023-01-11T01:45:18.291Z,100387.59
2023-01-11T01:47:51.868Z,100381.44
2023-01-11T01:50:28.333Z,100372.63
2023-01-11T01:53:06.212Z,100378.75
2023-01-11T01:55:39.390Z,100384.06
2023-01-11T01:58:13.787Z,100377.88
2023-01-11T02:00:42.810Z,100373.47
2023-01-11T02:03:13.796Z,100376.13
2023-01-11T02:05:40.572Z,100369.06
2023-01-11T02:08:17.909Z,100362.00
2023-01-11T02:10:44.727Z,100369.06
2023-01-11T02:13:14.296Z,100367.28
2023-01-11T02:15:41.546Z,100359.34
2023-01-11T02:18:13.808Z,100366.41
2023-01-11T02:20:43.095Z,100354.94
2023-01-11T02:23:25.642Z,100355.78
2023-01-11T02:26:15.106Z,100339.06
2023-01-11T02:28:49.641Z,100348.78
2023-01-11T02:31:35.798Z,100354.06
2023-01-11T02:34:27.992Z,100336.44
2023-01-11T02:37:29.296Z,100331.13
2023-01-11T02:40:08.883Z,100322.31
2023-01-11T02:43:14.635Z,100324.09
2023-01-11T02:46:24.258Z,100320.56
2023-01-11T02:49:36.740Z,100297.66
2023-01-11T02:52:12.933Z,100306.47
2023-01-11T02:54:43.333Z,100298.53
2023-01-11T02:57:12.433Z,100298.50
2023-01-11T02:59:40.683Z,100294.09
2023-01-11T03:02:07.463Z,100295.88
2023-01-11T03:04:39.668Z,100294.97
2023-01-11T03:07:33.714Z,100294.09
2023-01-11T03:10:25.214Z,100296.75
2023-01-11T03:13:16.267Z,100288.81
2023-01-11T03:16:04.393Z,100286.13
2023-01-11T03:18:53.278Z,100288.78
2023-01-11T03:21:48.816Z,100279.97
2023-01-11T03:24:45.834Z,100281.72
2023-01-11T03:27:54.999Z,100272.00
2023-01-11T03:30:55.589Z,100276.41
2023-01-11T03:33:52.660Z,100267.59
2023-01-11T03:36:51.395Z,100267.59
2023-01-11T03:39:28.285Z,100272.88
2023-01-11T03:42:00.130Z,100270.19
2023-01-11T03:44:34.051Z,100270.22
2023-01-11T03:47:10.304Z,100258.72
2023-01-11T03:49:52.610Z,100247.22
2023-01-11T03:52:29.070Z,100249.00
2023-01-11T03:54:58.916Z,100241.94
2023-01-11T03:57:33.819Z,100230.44
2023-01-11T04:00:00.989Z,100233.09
2023-01-11T04:02:34.763Z,100236.59
2023-01-11T04:05:02.725Z,100226.88
2023-01-11T04:07:29.619Z,100239.22
2023-01-11T04:09:58.430Z,100233.88
2023-01-11T04:12:25.809Z,100218.00
2023-01-11T04:14:52.774Z,100221.53
2023-01-11T04:17:19.725Z,100222.38
2023-01-11T04:19:47.170Z,100217.97
2023-01-11T04:22:14.000Z,100220.63
2023-01-11T04:24:40.775Z,100223.22
2023-01-11T04:27:07.559Z,100215.31
2023-01-11T04:29:34.334Z,100211.78
2023-01-11T04:32:01.277Z,100207.38
2023-01-11T04:34:28.063Z,100218.81
2023-01-11T04:36:54.854Z,100214.41
2023-01-11T04:39:21.644Z,100221.47
2023-01-11T04:42:06.861Z,100217.91
2023-01-11T04:44:33.634Z,100217.91
2023-01-11T04:47:00.416Z,100222.31
2023-01-11T04:49:27.180Z,100217.03
2023-01-11T04:51:53.970Z,100208.16
2023-01-11T04:54:20.739Z,100210.81
2023-01-11T04:56:47.523Z,100216.06
2023-01-11T04:59:14.486Z,100209.91
2023-01-11T05:01:41.272Z,100202.84
2023-01-11T05:04:08.068Z,100201.91
2023-01-11T05:06:34.893Z,100201.91
2023-01-11T05:09:01.728Z,100203.69
2023-01-11T05:11:28.517Z,100204.56
2023-01-11T05:13:55.280Z,100212.50
2023-01-11T05:16:24.180Z,100206.34
2023-01-11T05:18:57.360Z,100205.41
2023-01-11T05:21:36.925Z,100203.69
2023-01-11T05:24:07.057Z,100214.28
2023-01-11T05:26:36.972Z,100211.63
2023-01-11T05:29:07.999Z,100209.88
2023-01-11T05:31:37.191Z,100214.28
2023-01-11T05:34:04.242Z,100196.63
2023-01-11T05:36:31.074Z,100199.31
2023-01-11T05:38:57.853Z,100203.72
2023-01-11T05:41:27.248Z,100203.72
2023-01-11T05:44:14.321Z,100198.41
2023-01-11T05:46:43.227Z,100197.53
2023-01-11T05:49:12.200Z,100201.94
2023-01-11T05:51:40.075Z,100194.03
2023-01-11T05:54:13.241Z,100195.78
2023-01-11T05:56:40.513Z,100202.84
2023-01-11T05:59:07.261Z,100195.78
2023-01-11T06:01:34.567Z,100205.44
2023-01-11T06:04:01.675Z,100202.84
2023-01-11T06:06:28.655Z,100214.28
2023-01-11T06:08:55.490Z,100195.78
2023-01-11T06:11:22.266Z,100198.38
2023-01-11T06:13:49.072Z,100198.38
2023-01-11T06:16:19.314Z,100201.03
2023-01-11T06:18:50.248Z,100204.56
2023-01-11T06:21:18.260Z,100206.38
2023-01-11T06:23:50.469Z,100205.47
2023-01-11T06:26:20.944Z,100203.75
2023-01-11T06:28:48.341Z,100208.16
2023-01-11T06:31:17.337Z,100206.41
2023-01-11T06:33:45.055Z,100208.19
2023-01-11T06:36:13.420Z,100203.81
2023-01-11T06:38:40.789Z,100193.22
2023-01-11T06:41:08.680Z,100198.53
2023-01-11T06:43:37.339Z,100203.81
2023-01-11T06:46:05.140Z,100206.47
2023-01-11T06:48:31.967Z,100205.59
2023-01-11T06:50:59.445Z,100207.38
2023-01-11T06:53:29.035Z,100210.88
2023-01-11T06:55:57.944Z,100209.16
2023-01-11T06:58:26.036Z,100205.63
2023-01-11T07:00:55.552Z,100214.44
2023-01-11T07:03:24.395Z,100213.53
2023-01-11T07:05:52.940Z,100209.16
2023-01-11T07:08:20.578Z,100206.47
2023-01-11T07:10:48.029Z,100200.28
2023-01-11T07:13:17.087Z,100202.09
2023-01-11T07:15:50.083Z,100207.34
2023-01-11T07:18:18.588Z,100204.72
2023-01-11T07:20:45.341Z,100210.00
2023-01-11T07:23:12.160Z,100214.41
2023-01-11T07:25:39.219Z,100222.38
2023-01-11T07:28:08.348Z,100219.72
2023-01-11T07:30:56.065Z,100215.28
2023-01-11T07:33:24.125Z,100205.59
2023-01-11T07:35:50.922Z,100211.75
2023-01-11T07:38:17.728Z,100217.06
2023-01-11T07:40:44.679Z,100210.84
2023-01-11T07:43:18.169Z,100212.63
2023-01-11T07:45:51.146Z,100213.50
2023-01-11T07:48:24.485Z,100217.91
2023-01-11T07:50:54.109Z,100218.75
2023-01-11T07:53:21.076Z,100221.41
2023-01-11T07:55:47.890Z,100224.94
2023-01-11T07:58:15.394Z,100218.72
2023-01-11T08:00:42.197Z,100224.03
2023-01-11T08:03:09.772Z,100225.78
2023-01-11T08:05:36.693Z,100216.03
2023-01-11T08:08:04.482Z,100230.16
2023-01-11T08:10:31.550Z,100213.38
2023-01-11T08:13:16.995Z,100214.28
2023-01-11T08:15:44.024Z,100217.81
2023-01-11T08:18:12.457Z,100221.31
2023-01-11T08:20:40.558Z,100213.34
2023-01-11T08:23:09.898Z,100210.72
2023-01-11T08:25:37.399Z,100219.50
2023-01-11T08:28:06.423Z,100221.25
2023-01-11T08:30:33.718Z,100207.13
2023-01-11T08:33:02.071Z,100221.22
2023-01-11T08:35:30.558Z,100229.16
2023-01-11T08:37:57.419Z,100230.94
2023-01-11T08:40:25.504Z,100234.44
2023-01-11T08:42:56.917Z,100233.53
2023-01-11T08:45:24.578Z,100222.94
2023-01-11T08:47:51.953Z,100217.63
2023-01-11T08:50:19.672Z,100229.97
2023-01-11T08:52:47.570Z,100237.88
2023-01-11T08:55:14.363Z,100229.94
2023-01-11T08:57:41.159Z,100239.63
2023-01-11T09:00:09.027Z,100233.44
2023-01-11T09:02:35.986Z,100235.16
2023-01-11T09:05:02.843Z,100245.72
2023-01-11T09:07:29.672Z,100245.72
2023-01-11T09:09:56.436Z,100247.47
2023-01-11T09:12:23.295Z,100245.69
2023-01-11T09:14:50.169Z,100250.97
2023-01-11T09:17:16.960Z,100250.03
2023-01-11T09:19:43.703Z,100250.94
2023-01-11T09:22:10.498Z,100250.03
2023-01-11T09:24:37.293Z,100251.81
2023-01-11T09:27:04.904Z,100250.00
2023-01-11T09:29:32.446Z,100250.00
2023-01-11T09:31:59.422Z,100248.19
2023-01-11T09:34:27.330Z,100248.19
2023-01-11T09:36:56.086Z,100248.19
2023-01-11T09:39:26.212Z,100249.03
2023-01-11T09:42:26.991Z,100255.13
2023-01-11T09:44:59.589Z,100248.94
2023-01-11T09:48:04.851Z,100238.28
2023-01-11T09:50:41.108Z,100230.28
2023-01-11T09:53:28.047Z,100240.84
2023-01-11T09:55:58.027Z,100240.84
2023-01-11T09:58:49.692Z,100239.03
2023-01-11T10:01:31.465Z,100233.66
2023-01-11T10:04:23.937Z,100234.53
2023-01-11T10:07:22.968Z,100236.31
2023-01-11T10:18:25.374Z,100238.81
2023-01-11T10:20:15.184Z,100239.59
2023-01-11T10:22:48.828Z,100246.69
2023-01-11T10:25:34.935Z,100250.19
2023-01-11T10:28:14.987Z,100248.41
2023-01-11T10:31:01.253Z,100233.31
2023-01-11T10:34:06.144Z,100246.53
2023-01-11T10:37:07.940Z,100241.16
2023-01-11T10:40:34.933Z,100241.16
2023-01-11T10:43:04.749Z,100229.66
2023-01-11T10:45:50.673Z,100233.16
2023-01-11T10:48:33.886Z,100229.59
2023-01-11T10:51:15.034Z,100232.25
2023-01-11T10:54:02.989Z,100226.00
2023-01-11T10:57:14.143Z,100224.22
2023-01-11T11:00:18.686Z,100219.75
2023-01-11T11:03:10.131Z,100219.75
2023-01-11T11:05:55.022Z,100217.91
2023-01-11T11:08:46.610Z,100224.06
2023-01-11T11:11:21.803Z,100223.16
2023-01-11T11:14:18.476Z,100226.66
2023-01-11T11:17:18.187Z,100226.66
2023-01-11T11:19:45.020Z,100224.91
2023-01-11T11:22:12.890Z,100231.97
2023-01-11T11:24:52.196Z,100239.00
2023-01-11T11:27:45.961Z,100225.75
2023-01-11T11:30:15.514Z,100220.44
2023-01-11T11:32:55.792Z,100218.66
2023-01-11T11:35:40.740Z,100223.09
2023-01-11T11:38:20.411Z,100227.53
2023-01-11T11:41:05.203Z,100234.59
2023-01-11T11:43:34.690Z,100256.78
2023-01-11T11:46:04.762Z,100255.06
2023-01-11T11:48:34.121Z,100250.66
2023-01-11T11:51:07.222Z,100251.59
2023-01-11T11:53:46.018Z,100263.09
2023-01-11T11:56:31.405Z,100261.38
2023-01-11T11:58:59.450Z,100260.50
2023-01-11T12:01:36.223Z,100258.78
2023-01-11T12:04:29.832Z,100261.44
2023-01-11T12:07:30.403Z,100265.94
2023-01-11T12:09:58.982Z,100265.94
2023-01-11T12:12:28.576Z,100273.00
2023-01-11T12:15:19.668Z,100268.59
2023-01-11T12:17:47.519Z,100272.16
2023-01-11T12:20:23.380Z,100274.81
2023-01-11T12:22:51.345Z,100269.53
2023-01-11T12:25:23.016Z,100256.25
2023-01-11T12:28:01.961Z,100239.44
2023-01-11T12:31:05.035Z,100246.53
2023-01-11T12:34:17.362Z,100256.25
2023-01-11T12:37:01.953Z,100257.13
2023-01-11T12:39:52.004Z,100257.13
2023-01-11T12:43:09.038Z,100259.78
2023-01-11T12:46:12.234Z,100264.22
2023-01-11T12:49:03.192Z,100254.47
2023-01-11T12:52:14.788Z,100260.66
2023-01-11T12:55:15.081Z,100259.78
2023-01-11T12:58:08.207Z,100267.75
2023-01-11T13:01:09.618Z,100278.38
2023-01-11T13:04:35.191Z,100285.44
2023-01-11T13:07:36.241Z,100279.25
2023-01-11T13:10:29.717Z,100285.44
2023-01-11T13:13:15.209Z,100285.44
2023-01-11T13:16:07.362Z,100288.97
2023-01-11T13:18:51.295Z,100297.78
2023-01-11T13:21:43.042Z,100299.53
2023-01-11T13:24:18.582Z,100297.78
2023-01-11T13:26:50.475Z,100298.66
2023-01-11T13:29:27.582Z,100310.09
2023-01-11T13:31:58.855Z,100311.88
2023-01-11T13:34:38.665Z,100293.25
2023-01-11T13:37:20.116Z,100288.78
2023-01-11T13:40:32.615Z,100310.00
2023-01-11T13:43:07.724Z,100306.44
2023-01-11T13:45:44.441Z,100309.06
2023-01-11T13:48:27.427Z,100311.69
2023-01-11T13:51:44.282Z,100306.34
2023-01-11T13:54:20.714Z,100313.41
2023-01-11T13:56:58.356Z,100316.91
2023-01-11T13:59:35.454Z,100315.97
2023-01-11T14:02:40.633Z,100327.47
2023-01-11T14:05:21.239Z,100334.50
2023-01-11T14:08:32.380Z,100346.00
2023-01-11T14:11:19.359Z,100338.91
2023-01-11T14:14:37.764Z,100338.03
2023-01-11T14:17:22.623Z,100346.00
2023-01-11T14:19:57.420Z,100355.78
2023-01-11T14:23:08.582Z,100372.59
2023-01-11T14:26:02.088Z,100373.50
2023-01-11T14:29:03.435Z,100373.53
2023-01-11T14:31:30.148Z,100397.47
2023-01-11T14:34:10.904Z,100384.25
2023-01-11T14:37:10.925Z,100387.81
2023-01-11T14:40:22.824Z,100394.94
2023-01-11T14:43:42.597Z,100405.66
2023-01-11T14:46:31.535Z,100411.06
2023-01-11T14:49:55.831Z,100413.75
2023-01-11T14:52:39.042Z,100414.69
2023-01-11T14:55:30.312Z,100405.84
2023-01-11T14:57:56.965Z,100409.44
2023-01-11T15:00:23.634Z,100419.19
2023-01-11T15:03:20.832Z,100416.53
2023-01-11T15:06:14.531Z,100415.69
2023-01-11T15:08:54.786Z,100414.81
2023-01-11T15:11:30.947Z,100423.66
2023-01-11T15:14:28.472Z,100419.28
2023-01-11T15:17:19.319Z,100421.94
2023-01-11T15:19:47.377Z,100433.47
2023-01-11T15:22:29.541Z,100435.22
2023-01-11T15:25:03.109Z,100429.09
2023-01-11T15:27:36.823Z,100424.69
2023-01-11T15:30:09.368Z,100429.13
2023-01-11T15:32:36.795Z,100429.16
2023-01-11T15:35:36.267Z,100441.56
2023-01-11T15:38:52.718Z,100444.25
2023-01-11T15:42:12.057Z,100461.94
2023-01-11T15:45:17.103Z,100459.34
2023-01-11T15:48:38.246Z,100452.31
2023-01-11T15:51:55.628Z,100469.13
2023-01-11T15:55:29.555Z,100469.19
2023-01-11T15:58:30.232Z,100473.59
2023-01-11T16:01:30.226Z,100480.72
2023-01-11T16:04:15.155Z,100487.81
2023-01-11T16:06:53.400Z,100494.00
2023-01-11T16:09:54.063Z,100503.72
2023-01-11T16:12:43.568Z,100514.34
2023-01-11T16:15:18.954Z,100519.63
2023-01-11T16:17:48.159Z,100514.38
2023-01-11T16:20:28.799Z,100516.16
2023-01-11T16:23:02.997Z,100525.84
2023-01-11T16:25:42.460Z,100528.50
2023-01-11T16:28:17.045Z,100534.72
2023-01-11T16:30:46.438Z,100532.97
2023-01-11T16:33:14.709Z,100535.59
2023-01-11T16:35:41.521Z,100532.09
2023-01-11T16:38:18.209Z,100535.66
2023-01-11T16:40:52.844Z,100534.75
2023-01-11T16:43:27.078Z,100533.91
2023-01-11T16:45:56.802Z,100529.47
2023-01-11T16:48:29.757Z,100531.25
2023-01-11T16:51:04.113Z,100542.69
2023-01-11T16:53:33.532Z,100533.00
2023-01-11T16:56:21.922Z,100538.31
2023-01-11T16:59:15.207Z,100535.66
2023-01-11T17:01:55.210Z,100535.66
2023-01-11T17:04:49.571Z,100548.03
2023-01-11T17:07:28.719Z,100548.00
2023-01-11T17:10:27.826Z,100540.06
2023-01-11T17:13:52.675Z,100545.38
2023-01-11T17:16:23.832Z,100547.13
2023-01-11T17:18:50.728Z,100548.03
2023-01-11T17:21:26.731Z,100549.78
2023-01-11T17:23:59.502Z,100548.00
2023-01-11T17:26:38.114Z,100545.38
2023-01-11T17:29:06.010Z,100553.31
2023-01-11T17:31:36.116Z,100545.38
2023-01-11T17:34:15.518Z,100561.25
2023-01-11T17:36:43.501Z,100555.94
2023-01-11T17:39:29.327Z,100557.72
2023-01-11T17:42:16.907Z,100556.81
2023-01-11T17:45:04.163Z,100558.56
2023-01-11T17:47:32.467Z,100560.34
2023-01-11T17:50:02.198Z,100564.75
2023-01-11T17:52:53.851Z,100572.66
2023-01-11T17:55:24.330Z,100578.84
2023-01-11T17:58:20.692Z,100577.97
2023-01-11T18:01:13.741Z,100592.06
2023-01-11T18:03:58.320Z,100584.13
2023-01-11T18:06:41.853Z,100590.25
2023-01-11T18:09:22.406Z,100592.03
2023-01-11T18:11:50.673Z,100586.72
2023-01-11T18:14:30.075Z,100593.78
2023-01-11T18:17:03.982Z,100590.28
2023-01-11T18:19:40.832Z,100595.56
2023-01-11T18:22:29.939Z,100588.53
2023-01-11T18:25:04.474Z,100585.03
2023-01-11T18:27:35.287Z,100592.94
2023-01-11T18:30:06.519Z,100588.56
2023-01-11T18:32:40.205Z,100597.38
2023-01-11T18:35:18.427Z,100596.50
2023-01-11T18:37:45.512Z,100593.00
2023-01-11T18:40:14.799Z,100591.22
2023-01-11T18:42:43.360Z,100594.75
2023-01-11T18:45:11.318Z,100590.34
2023-01-11T18:47:38.166Z,100588.56
2023-01-11T18:50:05.766Z,100594.72
2023-01-11T18:52:32.573Z,100595.63
2023-01-11T18:54:59.387Z,100600.91
2023-01-11T18:57:26.142Z,100597.34
2023-01-11T18:59:53.307Z,100594.72
2023-01-11T19:02:24.974Z,100599.97
2023-01-11T19:04:54.487Z,100601.75
2023-01-11T19:07:22.923Z,100609.66
2023-01-11T19:09:50.476Z,100612.28
2023-01-11T19:12:18.247Z,100601.69
2023-01-11T19:14:45.031Z,100609.63
2023-01-11T19:17:13.419Z,100598.16
2023-01-11T19:19:40.513Z,100602.56
2023-01-11T19:22:07.378Z,100594.63
2023-01-11T19:24:34.276Z,100603.41
2023-01-11T19:27:01.076Z,100594.59
2023-01-11T19:29:28.249Z,100591.94
2023-01-11T19:31:57.853Z,100590.19
2023-01-11T19:34:24.675Z,100587.56
2023-01-11T19:36:52.258Z,100593.72
2023-01-11T19:39:19.555Z,100593.69
2023-01-11T19:41:56.566Z,100591.03
2023-01-11T19:44:30.464Z,100588.38
2023-01-11T19:47:10.347Z,100590.13
2023-01-11T19:49:38.779Z,100576.91
2023-01-11T19:52:12.037Z,100573.38
2023-01-11T19:54:43.215Z,100569.00
2023-01-11T19:57:12.196Z,100560.22
2023-01-11T19:59:38.961Z,100567.22
2023-01-11T20:02:05.976Z,100563.75
2023-01-11T20:04:33.292Z,100569.88
2023-01-11T20:07:00.042Z,100557.56
2023-01-11T20:09:26.840Z,100558.47
2023-01-11T20:11:55.337Z,100558.47
2023-01-11T20:14:22.110Z,100562.88
2023-01-11T20:16:48.849Z,100561.97
2023-01-11T20:19:15.711Z,100555.84
2023-01-11T20:21:42.632Z,100563.75
2023-01-11T20:24:13.212Z,100566.44
2023-01-11T20:26:40.911Z,100559.34
2023-01-11T20:29:08.223Z,100550.56
2023-01-11T20:31:35.687Z,100550.56
2023-01-11T20:34:13.293Z,100540.00
2023-01-11T20:36:40.132Z,100549.69
2023-01-11T20:39:07.169Z,100549.69
2023-01-11T20:41:49.618Z,100534.72
2023-01-11T20:44:29.338Z,100528.56
2023-01-11T20:46:56.793Z,100532.06
2023-01-11T20:49:31.238Z,100524.16
2023-01-11T20:51:58.045Z,100520.63
2023-01-11T20:54:24.821Z,100522.38
2023-01-11T20:56:51.722Z,100521.50
2023-01-11T20:59:20.066Z,100515.34
2023-01-11T21:01:48.714Z,100517.97
2023-01-11T21:04:17.130Z,100520.63
2023-01-11T21:06:46.347Z,100516.22
2023-01-11T21:09:16.424Z,100519.75
2023-01-11T21:11:44.114Z,100510.94
2023-01-11T21:14:13.479Z,100508.28
2023-01-11T21:16:42.633Z,100494.22
2023-01-11T21:19:13.184Z,100498.59
2023-01-11T21:21:40.669Z,100491.56
2023-01-11T21:24:08.163Z,100481.84
2023-01-11T21:26:35.012Z,100486.28
2023-01-11T21:29:04.852Z,100465.13
2023-01-11T21:31:35.201Z,100466.91
2023-01-11T21:34:02.738Z,100461.59
2023-01-11T21:36:31.603Z,100451.03
2023-01-11T21:38:59.790Z,100457.19
2023-01-11T21:41:49.069Z,100456.34
2023-01-11T21:44:17.451Z,100458.97
2023-01-11T21:46:44.439Z,100455.44
2023-01-11T21:49:13.095Z,100459.84
2023-01-11T21:51:41.148Z,100458.09
2023-01-11T21:54:15.012Z,100455.47
2023-01-11T21:56:41.925Z,100456.34
2023-01-11T21:59:08.905Z,100454.59
2023-01-11T22:01:36.108Z,100466.03
2023-01-11T22:04:13.280Z,100461.63
2023-01-11T22:06:43.349Z,100462.50
2023-01-11T22:09:11.761Z,100454.56
2023-01-11T22:11:39.168Z,100466.91
2023-01-11T22:14:08.381Z,100462.50
2023-01-11T22:16:36.044Z,100454.56
2023-01-11T22:19:06.083Z,100441.34
2023-01-11T22:21:32.941Z,100443.09
2023-01-11T22:24:00.106Z,100433.41
2023-01-11T22:26:29.891Z,100428.09
2023-01-11T22:29:11.788Z,100437.84
2023-01-11T22:31:54.894Z,100438.69
2023-01-11T22:34:23.169Z,100436.94
2023-01-11T22:36:50.084Z,100434.28
2023-01-11T22:39:19.474Z,100434.28
2023-01-11T22:41:48.360Z,100440.44
2023-01-11T22:44:15.579Z,100436.94
2023-01-11T22:46:43.780Z,100434.28
2023-01-11T22:49:10.926Z,100435.16
2023-01-11T22:51:38.222Z,100433.38
2023-01-11T22:54:05.066Z,100421.00
2023-01-11T22:56:31.979Z,100423.66
2023-01-11T22:58:59.061Z,100416.59
2023-01-11T23:01:29.395Z,100413.06
2023-01-11T23:03:57.756Z,100420.97
2023-01-11T23:06:30.417Z,100418.34
2023-01-11T23:08:58.687Z,100409.50
2023-01-11T23:11:48.063Z,100417.44
2023-01-11T23:14:19.786Z,100420.94
2023-01-11T23:16:48.967Z,100408.59
2023-01-11T23:19:19.556Z,100409.47
2023-01-11T23:21:47.407Z,100405.06
2023-01-11T23:24:16.452Z,100386.53
2023-01-11T23:26:44.877Z,100383.88
2023-01-11T23:29:12.241Z,100381.22
2023-01-11T23:31:39.379Z,100385.66
2023-01-11T23:34:08.954Z,100381.22
2023-01-11T23:36:41.656Z,100379.44
2023-01-11T23:39:16.166Z,100382.09
2023-01-11T23:42:01.202Z,100385.63
2023-01-11T23:44:28.098Z,100396.22
2023-01-11T23:47:13.455Z,100383.84
2023-01-11T23:49:40.280Z,100375.91
2023-01-11T23:52:07.129Z,100382.09
2023-01-11T23:54:34.369Z,100384.75
2023-01-11T23:57:02.981Z,100388.28
2023-01-11T23:59:30.360Z,100378.56
